sensor_id;sensor_type;location;lat;lon;timestamp;P1;durP1;ratioP1;P2;durP2;ratioP2
17422;SDS011;8829;47.932;7.810;2022-09-24T00:01:14;6.17;;;3.53;;
17422;SDS011;8829;47.932;7.810;2022-09-24T00:03:42;4.17;;;3.77;;
17422;SDS011;8829;47.932;7.810;2022-09-24T00:06:10;7.40;;;4.10;;
17422;SDS011;8829;47.932;7.810;2022-09-24T00:08:39;3.40;;;3.10;;
17422;SDS011;8829;47.932;7.810;2022-09-24T00:11:07;7.10;;;4.03;;
17422;SDS011;8829;47.932;7.810;2022-09-24T00:13:34;5.07;;;4.00;;
17422;SDS011;8829;47.932;7.810;2022-09-24T00:16:02;6.07;;;3.53;;
17422;SDS011;8829;47.932;7.810;2022-09-24T00:18:31;3.33;;;3.13;;
17422;SDS011;8829;47.932;7.810;2022-09-24T00:20:58;4.13;;;3.77;;
17422;SDS011;8829;47.932;7.810;2022-09-24T00:23:25;3.20;;;2.97;;
17422;SDS011;8829;47.932;7.810;2022-09-24T00:25:53;4.73;;;3.60;;
17422;SDS011;8829;47.932;7.810;2022-09-24T00:28:38;4.97;;;3.50;;
17422;SDS011;8829;47.932;7.810;2022-09-24T00:31:05;4.33;;;3.93;;
17422;SDS011;8829;47.932;7.810;2022-09-24T00:33:32;3.43;;;3.13;;
17422;SDS011;8829;47.932;7.810;2022-09-24T00:36:00;5.23;;;3.87;;
17422;SDS011;8829;47.932;7.810;2022-09-24T00:38:29;4.07;;;3.40;;
17422;SDS011;8829;47.932;7.810;2022-09-24T00:40:58;4.17;;;3.67;;
17422;SDS011;8829;47.932;7.810;2022-09-24T00:43:26;4.50;;;3.63;;
17422;SDS011;8829;47.932;7.810;2022-09-24T00:45:56;5.17;;;4.23;;
17422;SDS011;8829;47.932;7.810;2022-09-24T00:48:27;4.33;;;3.93;;
17422;SDS011;8829;47.932;7.810;2022-09-24T00:50:54;6.20;;;3.80;;
17422;SDS011;8829;47.932;7.810;2022-09-24T00:53:21;3.90;;;3.60;;
17422;SDS011;8829;47.932;7.810;2022-09-24T00:55:53;4.50;;;4.10;;
17422;SDS011;8829;47.932;7.810;2022-09-24T00:58:22;3.87;;;3.57;;
17422;SDS011;8829;47.932;7.810;2022-09-24T01:00:51;4.87;;;3.80;;
17422;SDS011;8829;47.932;7.810;2022-09-24T01:03:24;11.63;;;4.30;;
17422;SDS011;8829;47.932;7.810;2022-09-24T01:05:53;6.40;;;3.83;;
17422;SDS011;8829;47.932;7.810;2022-09-24T01:08:21;4.40;;;4.00;;
17422;SDS011;8829;47.932;7.810;2022-09-24T01:10:50;5.43;;;4.30;;
17422;SDS011;8829;47.932;7.810;2022-09-24T01:13:42;8.80;;;3.90;;
17422;SDS011;8829;47.932;7.810;2022-09-24T01:16:24;8.40;;;4.40;;
17422;SDS011;8829;47.932;7.810;2022-09-24T01:19:03;4.30;;;3.90;;
17422;SDS011;8829;47.932;7.810;2022-09-24T01:21:37;5.67;;;3.90;;
17422;SDS011;8829;47.932;7.810;2022-09-24T01:27:13;6.80;;;2.87;;
17422;SDS011;8829;47.932;7.810;2022-09-24T01:29:56;4.00;;;2.80;;
17422;SDS011;8829;47.932;7.810;2022-09-24T01:32:29;3.57;;;2.10;;
17422;SDS011;8829;47.932;7.810;2022-09-24T01:35:02;6.73;;;2.93;;
17422;SDS011;8829;47.932;7.810;2022-09-24T01:37:35;2.57;;;2.20;;
17422;SDS011;8829;47.932;7.810;2022-09-24T01:40:05;2.57;;;2.10;;
17422;SDS011;8829;47.932;7.810;2022-09-24T01:42:34;2.03;;;1.80;;
17422;SDS011;8829;47.932;7.810;2022-09-24T01:45:04;2.17;;;2.00;;
17422;SDS011;8829;47.932;7.810;2022-09-24T01:47:32;2.83;;;2.10;;
17422;SDS011;8829;47.932;7.810;2022-09-24T01:50:04;2.37;;;2.17;;
17422;SDS011;8829;47.932;7.810;2022-09-24T01:52:33;2.17;;;2.07;;
17422;SDS011;8829;47.932;7.810;2022-09-24T01:55:06;5.33;;;2.33;;
17422;SDS011;8829;47.932;7.810;2022-09-24T01:57:37;3.43;;;1.90;;
17422;SDS011;8829;47.932;7.810;2022-09-24T02:00:10;2.10;;;2.00;;
17422;SDS011;8829;47.932;7.810;2022-09-24T02:02:40;4.17;;;2.10;;
17422;SDS011;8829;47.932;7.810;2022-09-24T02:05:11;3.73;;;2.77;;
17422;SDS011;8829;47.932;7.810;2022-09-24T02:07:44;3.00;;;2.77;;
17422;SDS011;8829;47.932;7.810;2022-09-24T02:10:15;5.33;;;2.50;;
17422;SDS011;8829;47.932;7.810;2022-09-24T02:12:44;2.97;;;2.47;;
17422;SDS011;8829;47.932;7.810;2022-09-24T02:15:18;2.60;;;2.40;;
17422;SDS011;8829;47.932;7.810;2022-09-24T02:17:50;2.83;;;2.53;;
17422;SDS011;8829;47.932;7.810;2022-09-24T02:20:20;2.73;;;2.27;;
17422;SDS011;8829;47.932;7.810;2022-09-24T02:22:48;2.33;;;2.13;;
17422;SDS011;8829;47.932;7.810;2022-09-24T02:25:17;2.07;;;1.80;;
17422;SDS011;8829;47.932;7.810;2022-09-24T02:27:47;3.63;;;1.70;;
17422;SDS011;8829;47.932;7.810;2022-09-24T02:30:14;2.17;;;1.80;;
17422;SDS011;8829;47.932;7.810;2022-09-24T02:32:43;3.20;;;1.97;;
17422;SDS011;8829;47.932;7.810;2022-09-24T02:35:10;2.83;;;1.70;;
17422;SDS011;8829;47.932;7.810;2022-09-24T02:37:37;1.90;;;1.80;;
17422;SDS011;8829;47.932;7.810;2022-09-24T02:40:06;2.00;;;1.90;;
17422;SDS011;8829;47.932;7.810;2022-09-24T02:42:35;2.00;;;1.90;;
17422;SDS011;8829;47.932;7.810;2022-09-24T02:45:02;2.50;;;2.30;;
17422;SDS011;8829;47.932;7.810;2022-09-24T02:47:29;2.80;;;2.33;;
17422;SDS011;8829;47.932;7.810;2022-09-24T02:49:57;1.87;;;1.77;;
17422;SDS011;8829;47.932;7.810;2022-09-24T02:52:24;1.90;;;1.80;;
17422;SDS011;8829;47.932;7.810;2022-09-24T02:54:52;1.67;;;1.57;;
17422;SDS011;8829;47.932;7.810;2022-09-24T02:57:18;3.67;;;1.83;;
17422;SDS011;8829;47.932;7.810;2022-09-24T02:59:45;1.60;;;1.50;;
17422;SDS011;8829;47.932;7.810;2022-09-24T03:02:12;1.67;;;1.57;;
17422;SDS011;8829;47.932;7.810;2022-09-24T03:04:39;1.30;;;1.20;;
17422;SDS011;8829;47.932;7.810;2022-09-24T03:07:07;2.47;;;1.80;;
17422;SDS011;8829;47.932;7.810;2022-09-24T03:09:34;3.20;;;1.37;;
17422;SDS011;8829;47.932;7.810;2022-09-24T03:12:01;1.97;;;1.30;;
17422;SDS011;8829;47.932;7.810;2022-09-24T03:14:29;1.70;;;1.27;;
17422;SDS011;8829;47.932;7.810;2022-09-24T03:16:55;1.63;;;1.50;;
17422;SDS011;8829;47.932;7.810;2022-09-24T03:19:22;2.70;;;1.50;;
17422;SDS011;8829;47.932;7.810;2022-09-24T03:21:50;2.33;;;1.53;;
17422;SDS011;8829;47.932;7.810;2022-09-24T03:24:18;1.87;;;1.27;;
17422;SDS011;8829;47.932;7.810;2022-09-24T03:26:45;2.03;;;1.50;;
17422;SDS011;8829;47.932;7.810;2022-09-24T03:29:12;4.03;;;1.40;;
17422;SDS011;8829;47.932;7.810;2022-09-24T03:31:38;1.50;;;1.20;;
17422;SDS011;8829;47.932;7.810;2022-09-24T03:34:04;1.40;;;1.30;;
17422;SDS011;8829;47.932;7.810;2022-09-24T03:36:31;1.50;;;1.40;;
17422;SDS011;8829;47.932;7.810;2022-09-24T03:38:57;1.60;;;1.50;;
17422;SDS011;8829;47.932;7.810;2022-09-24T03:41:26;1.40;;;1.30;;
17422;SDS011;8829;47.932;7.810;2022-09-24T03:43:52;1.40;;;1.30;;
17422;SDS011;8829;47.932;7.810;2022-09-24T03:46:19;1.40;;;1.30;;
17422;SDS011;8829;47.932;7.810;2022-09-24T03:48:54;1.80;;;1.50;;
17422;SDS011;8829;47.932;7.810;2022-09-24T03:51:24;1.30;;;1.20;;
17422;SDS011;8829;47.932;7.810;2022-09-24T03:53:50;1.63;;;1.40;;
17422;SDS011;8829;47.932;7.810;2022-09-24T03:56:17;1.60;;;1.50;;
17422;SDS011;8829;47.932;7.810;2022-09-24T03:58:45;1.30;;;1.30;;
17422;SDS011;8829;47.932;7.810;2022-09-24T04:01:12;1.07;;;1.07;;
17422;SDS011;8829;47.932;7.810;2022-09-24T04:03:45;1.40;;;1.30;;
17422;SDS011;8829;47.932;7.810;2022-09-24T04:06:12;1.57;;;1.43;;
17422;SDS011;8829;47.932;7.810;2022-09-24T04:08:39;1.87;;;1.60;;
17422;SDS011;8829;47.932;7.810;2022-09-24T04:11:06;2.07;;;1.50;;
17422;SDS011;8829;47.932;7.810;2022-09-24T04:13:32;1.77;;;1.10;;
17422;SDS011;8829;47.932;7.810;2022-09-24T04:16:02;1.53;;;1.30;;
17422;SDS011;8829;47.932;7.810;2022-09-24T04:18:29;2.03;;;1.30;;
17422;SDS011;8829;47.932;7.810;2022-09-24T04:20:56;0.87;;;0.87;;
17422;SDS011;8829;47.932;7.810;2022-09-24T04:23:24;1.63;;;1.13;;
17422;SDS011;8829;47.932;7.810;2022-09-24T04:25:51;2.23;;;1.30;;
17422;SDS011;8829;47.932;7.810;2022-09-24T04:28:18;2.57;;;1.47;;
17422;SDS011;8829;47.932;7.810;2022-09-24T04:30:44;1.20;;;1.10;;
17422;SDS011;8829;47.932;7.810;2022-09-24T04:33:12;1.40;;;1.30;;
17422;SDS011;8829;47.932;7.810;2022-09-24T04:35:39;1.47;;;1.37;;
17422;SDS011;8829;47.932;7.810;2022-09-24T04:38:06;1.30;;;1.30;;
17422;SDS011;8829;47.932;7.810;2022-09-24T04:40:33;1.50;;;1.40;;
17422;SDS011;8829;47.932;7.810;2022-09-24T04:42:59;1.50;;;1.10;;
17422;SDS011;8829;47.932;7.810;2022-09-24T04:45:29;2.27;;;1.80;;
17422;SDS011;8829;47.932;7.810;2022-09-24T04:47:56;1.33;;;1.30;;
17422;SDS011;8829;47.932;7.810;2022-09-24T04:50:24;1.60;;;1.50;;
17422;SDS011;8829;47.932;7.810;2022-09-24T04:52:52;1.40;;;1.30;;
17422;SDS011;8829;47.932;7.810;2022-09-24T04:55:20;1.50;;;1.20;;
17422;SDS011;8829;47.932;7.810;2022-09-24T04:57:47;1.60;;;1.37;;
17422;SDS011;8829;47.932;7.810;2022-09-24T05:00:15;1.53;;;1.53;;
17422;SDS011;8829;47.932;7.810;2022-09-24T05:02:44;1.20;;;1.20;;
17422;SDS011;8829;47.932;7.810;2022-09-24T05:05:11;2.40;;;2.20;;
17422;SDS011;8829;47.932;7.810;2022-09-24T05:07:40;2.97;;;2.67;;
17422;SDS011;8829;47.932;7.810;2022-09-24T05:10:08;7.60;;;5.60;;
17422;SDS011;8829;47.932;7.810;2022-09-24T05:12:35;2.37;;;2.17;;
17422;SDS011;8829;47.932;7.810;2022-09-24T05:15:02;2.77;;;2.53;;
17422;SDS011;8829;47.932;7.810;2022-09-24T05:17:29;1.50;;;1.40;;
17422;SDS011;8829;47.932;7.810;2022-09-24T05:19:56;2.80;;;1.70;;
17422;SDS011;8829;47.932;7.810;2022-09-24T05:22:25;2.30;;;2.20;;
17422;SDS011;8829;47.932;7.810;2022-09-24T05:24:53;2.33;;;2.23;;
17422;SDS011;8829;47.932;7.810;2022-09-24T05:27:20;3.07;;;1.70;;
17422;SDS011;8829;47.932;7.810;2022-09-24T05:29:47;1.50;;;1.40;;
17422;SDS011;8829;47.932;7.810;2022-09-24T05:32:15;1.30;;;1.30;;
17422;SDS011;8829;47.932;7.810;2022-09-24T05:34:43;1.50;;;1.40;;
17422;SDS011;8829;47.932;7.810;2022-09-24T05:37:11;1.80;;;1.53;;
17422;SDS011;8829;47.932;7.810;2022-09-24T05:39:38;2.83;;;1.33;;
17422;SDS011;8829;47.932;7.810;2022-09-24T05:42:07;1.83;;;1.40;;
17422;SDS011;8829;47.932;7.810;2022-09-24T05:44:35;3.30;;;3.00;;
17422;SDS011;8829;47.932;7.810;2022-09-24T05:47:02;1.77;;;1.67;;
17422;SDS011;8829;47.932;7.810;2022-09-24T05:49:29;2.73;;;1.70;;
17422;SDS011;8829;47.932;7.810;2022-09-24T05:51:56;1.87;;;1.50;;
17422;SDS011;8829;47.932;7.810;2022-09-24T05:54:22;3.70;;;2.13;;
17422;SDS011;8829;47.932;7.810;2022-09-24T05:56:49;3.87;;;2.00;;
17422;SDS011;8829;47.932;7.810;2022-09-24T05:59:17;2.17;;;1.97;;
17422;SDS011;8829;47.932;7.810;2022-09-24T06:01:44;2.00;;;1.80;;
17422;SDS011;8829;47.932;7.810;2022-09-24T06:04:13;4.57;;;1.63;;
17422;SDS011;8829;47.932;7.810;2022-09-24T06:06:40;1.37;;;1.30;;
17422;SDS011;8829;47.932;7.810;2022-09-24T06:09:08;1.63;;;1.53;;
17422;SDS011;8829;47.932;7.810;2022-09-24T06:11:35;4.27;;;1.20;;
17422;SDS011;8829;47.932;7.810;2022-09-24T06:14:02;1.30;;;1.20;;
17422;SDS011;8829;47.932;7.810;2022-09-24T06:16:32;1.30;;;1.30;;
17422;SDS011;8829;47.932;7.810;2022-09-24T06:18:59;1.50;;;1.40;;
17422;SDS011;8829;47.932;7.810;2022-09-24T06:21:25;2.70;;;1.90;;
17422;SDS011;8829;47.932;7.810;2022-09-24T06:23:52;1.40;;;1.30;;
17422;SDS011;8829;47.932;7.810;2022-09-24T06:26:19;1.60;;;1.50;;
17422;SDS011;8829;47.932;7.810;2022-09-24T06:28:46;1.37;;;1.37;;
17422;SDS011;8829;47.932;7.810;2022-09-24T06:31:12;1.70;;;1.60;;
17422;SDS011;8829;47.932;7.810;2022-09-24T06:33:40;4.30;;;1.70;;
17422;SDS011;8829;47.932;7.810;2022-09-24T06:36:09;2.80;;;1.70;;
17422;SDS011;8829;47.932;7.810;2022-09-24T06:38:36;1.47;;;1.37;;
17422;SDS011;8829;47.932;7.810;2022-09-24T06:41:05;2.00;;;1.70;;
17422;SDS011;8829;47.932;7.810;2022-09-24T06:43:33;2.47;;;1.50;;
17422;SDS011;8829;47.932;7.810;2022-09-24T06:46:00;1.33;;;1.33;;
17422;SDS011;8829;47.932;7.810;2022-09-24T06:48:27;1.43;;;1.33;;
17422;SDS011;8829;47.932;7.810;2022-09-24T06:50:56;1.87;;;1.70;;
17422;SDS011;8829;47.932;7.810;2022-09-24T06:53:23;1.73;;;1.40;;
17422;SDS011;8829;47.932;7.810;2022-09-24T06:55:50;1.70;;;1.60;;
17422;SDS011;8829;47.932;7.810;2022-09-24T06:58:18;1.20;;;1.20;;
17422;SDS011;8829;47.932;7.810;2022-09-24T07:00:51;1.60;;;1.50;;
17422;SDS011;8829;47.932;7.810;2022-09-24T07:03:19;1.57;;;1.43;;
17422;SDS011;8829;47.932;7.810;2022-09-24T07:05:46;1.83;;;1.60;;
17422;SDS011;8829;47.932;7.810;2022-09-24T07:08:14;1.30;;;1.30;;
17422;SDS011;8829;47.932;7.810;2022-09-24T07:10:42;1.60;;;1.50;;
17422;SDS011;8829;47.932;7.810;2022-09-24T07:13:10;4.37;;;1.60;;
17422;SDS011;8829;47.932;7.810;2022-09-24T07:15:37;1.63;;;1.53;;
17422;SDS011;8829;47.932;7.810;2022-09-24T07:18:04;2.13;;;1.40;;
17422;SDS011;8829;47.932;7.810;2022-09-24T07:20:31;1.63;;;1.53;;
17422;SDS011;8829;47.932;7.810;2022-09-24T07:23:00;1.87;;;1.70;;
17422;SDS011;8829;47.932;7.810;2022-09-24T07:25:29;1.50;;;1.40;;
17422;SDS011;8829;47.932;7.810;2022-09-24T07:27:59;2.37;;;1.20;;
17422;SDS011;8829;47.932;7.810;2022-09-24T07:30:27;1.47;;;1.37;;
17422;SDS011;8829;47.932;7.810;2022-09-24T07:32:54;1.30;;;1.30;;
17422;SDS011;8829;47.932;7.810;2022-09-24T07:35:21;1.10;;;1.10;;
17422;SDS011;8829;47.932;7.810;2022-09-24T07:37:54;2.77;;;1.40;;
17422;SDS011;8829;47.932;7.810;2022-09-24T07:40:23;1.37;;;1.30;;
17422;SDS011;8829;47.932;7.810;2022-09-24T07:42:52;1.37;;;1.00;;
17422;SDS011;8829;47.932;7.810;2022-09-24T07:45:19;2.33;;;1.40;;
17422;SDS011;8829;47.932;7.810;2022-09-24T07:47:46;1.33;;;1.20;;
17422;SDS011;8829;47.932;7.810;2022-09-24T07:50:13;1.03;;;1.03;;
17422;SDS011;8829;47.932;7.810;2022-09-24T07:52:40;1.57;;;1.33;;
17422;SDS011;8829;47.932;7.810;2022-09-24T07:55:07;1.47;;;1.37;;
17422;SDS011;8829;47.932;7.810;2022-09-24T07:57:34;2.00;;;1.50;;
17422;SDS011;8829;47.932;7.810;2022-09-24T08:00:02;1.30;;;1.20;;
17422;SDS011;8829;47.932;7.810;2022-09-24T08:02:30;2.20;;;1.53;;
17422;SDS011;8829;47.932;7.810;2022-09-24T08:04:56;1.50;;;1.40;;
17422;SDS011;8829;47.932;7.810;2022-09-24T08:07:23;1.67;;;1.57;;
17422;SDS011;8829;47.932;7.810;2022-09-24T08:09:50;1.20;;;1.10;;
17422;SDS011;8829;47.932;7.810;2022-09-24T08:12:17;0.97;;;0.97;;
17422;SDS011;8829;47.932;7.810;2022-09-24T08:14:44;1.40;;;1.30;;
17422;SDS011;8829;47.932;7.810;2022-09-24T08:17:12;0.90;;;0.90;;
17422;SDS011;8829;47.932;7.810;2022-09-24T08:19:38;1.40;;;1.30;;
17422;SDS011;8829;47.932;7.810;2022-09-24T08:22:07;2.30;;;1.70;;
17422;SDS011;8829;47.932;7.810;2022-09-24T08:24:33;1.43;;;1.37;;
17422;SDS011;8829;47.932;7.810;2022-09-24T08:27:00;1.50;;;1.40;;
17422;SDS011;8829;47.932;7.810;2022-09-24T08:29:27;1.00;;;1.00;;
17422;SDS011;8829;47.932;7.810;2022-09-24T08:31:56;1.27;;;1.23;;
17422;SDS011;8829;47.932;7.810;2022-09-24T08:34:24;1.13;;;1.13;;
17422;SDS011;8829;47.932;7.810;2022-09-24T08:36:50;3.67;;;1.33;;
17422;SDS011;8829;47.932;7.810;2022-09-24T08:39:17;4.93;;;1.40;;
17422;SDS011;8829;47.932;7.810;2022-09-24T08:41:53;1.43;;;1.43;;
17422;SDS011;8829;47.932;7.810;2022-09-24T08:44:25;1.60;;;1.50;;
17422;SDS011;8829;47.932;7.810;2022-09-24T08:47:14;1.40;;;1.30;;
17422;SDS011;8829;47.932;7.810;2022-09-24T08:49:50;1.47;;;1.20;;
17422;SDS011;8829;47.932;7.810;2022-09-24T08:52:28;2.60;;;1.30;;
17422;SDS011;8829;47.932;7.810;2022-09-24T08:55:03;1.60;;;1.50;;
17422;SDS011;8829;47.932;7.810;2022-09-24T08:57:36;1.40;;;1.30;;
17422;SDS011;8829;47.932;7.810;2022-09-24T09:00:12;1.57;;;1.47;;
17422;SDS011;8829;47.932;7.810;2022-09-24T09:02:40;1.67;;;1.20;;
17422;SDS011;8829;47.932;7.810;2022-09-24T09:05:19;1.60;;;1.40;;
17422;SDS011;8829;47.932;7.810;2022-09-24T09:07:53;1.40;;;1.30;;
17422;SDS011;8829;47.932;7.810;2022-09-24T09:10:26;1.53;;;1.40;;
17422;SDS011;8829;47.932;7.810;2022-09-24T09:12:59;1.47;;;1.40;;
17422;SDS011;8829;47.932;7.810;2022-09-24T09:15:30;1.30;;;1.20;;
17422;SDS011;8829;47.932;7.810;2022-09-24T09:18:01;3.33;;;1.37;;
17422;SDS011;8829;47.932;7.810;2022-09-24T09:20:39;1.27;;;1.17;;
17422;SDS011;8829;47.932;7.810;2022-09-24T09:23:11;1.50;;;1.07;;
17422;SDS011;8829;47.932;7.810;2022-09-24T09:25:41;5.03;;;1.40;;
17422;SDS011;8829;47.932;7.810;2022-09-24T09:28:12;2.00;;;1.33;;
17422;SDS011;8829;47.932;7.810;2022-09-24T09:30:43;1.13;;;1.13;;
17422;SDS011;8829;47.932;7.810;2022-09-24T09:33:22;1.40;;;1.23;;
17422;SDS011;8829;47.932;7.810;2022-09-24T09:36:01;1.13;;;1.13;;
17422;SDS011;8829;47.932;7.810;2022-09-24T09:38:44;4.53;;;1.77;;
17422;SDS011;8829;47.932;7.810;2022-09-24T09:41:22;1.27;;;1.27;;
17422;SDS011;8829;47.932;7.810;2022-09-24T09:43:57;1.60;;;1.10;;
17422;SDS011;8829;47.932;7.810;2022-09-24T09:46:27;1.53;;;1.43;;
17422;SDS011;8829;47.932;7.810;2022-09-24T09:48:58;1.87;;;1.30;;
17422;SDS011;8829;47.932;7.810;2022-09-24T09:51:32;1.73;;;1.63;;
17422;SDS011;8829;47.932;7.810;2022-09-24T09:54:03;1.60;;;1.50;;
17422;SDS011;8829;47.932;7.810;2022-09-24T09:56:30;1.27;;;1.20;;
17422;SDS011;8829;47.932;7.810;2022-09-24T09:59:01;1.53;;;1.43;;
17422;SDS011;8829;47.932;7.810;2022-09-24T10:01:33;1.43;;;1.33;;
17422;SDS011;8829;47.932;7.810;2022-09-24T10:04:04;1.23;;;1.17;;
17422;SDS011;8829;47.932;7.810;2022-09-24T10:06:33;1.57;;;1.47;;
17422;SDS011;8829;47.932;7.810;2022-09-24T10:09:08;1.20;;;1.20;;
17422;SDS011;8829;47.932;7.810;2022-09-24T10:11:38;1.00;;;1.00;;
17422;SDS011;8829;47.932;7.810;2022-09-24T10:14:08;2.03;;;1.20;;
17422;SDS011;8829;47.932;7.810;2022-09-24T10:16:37;1.97;;;1.30;;
17422;SDS011;8829;47.932;7.810;2022-09-24T10:19:11;0.90;;;0.90;;
17422;SDS011;8829;47.932;7.810;2022-09-24T10:21:43;0.97;;;0.80;;
17422;SDS011;8829;47.932;7.810;2022-09-24T10:24:11;0.90;;;0.90;;
17422;SDS011;8829;47.932;7.810;2022-09-24T10:26:42;0.77;;;0.77;;
17422;SDS011;8829;47.932;7.810;2022-09-24T10:29:11;2.87;;;1.20;;
17422;SDS011;8829;47.932;7.810;2022-09-24T10:31:58;1.60;;;1.23;;
17422;SDS011;8829;47.932;7.810;2022-09-24T10:34:26;1.30;;;1.20;;
17422;SDS011;8829;47.932;7.810;2022-09-24T10:36:58;1.13;;;1.10;;
17422;SDS011;8829;47.932;7.810;2022-09-24T10:39:27;1.83;;;1.40;;
17422;SDS011;8829;47.932;7.810;2022-09-24T10:41:55;6.20;;;4.20;;
17422;SDS011;8829;47.932;7.810;2022-09-24T10:44:23;1.50;;;1.40;;
17422;SDS011;8829;47.932;7.810;2022-09-24T10:46:57;1.27;;;1.17;;
17422;SDS011;8829;47.932;7.810;2022-09-24T10:49:43;1.83;;;1.73;;
17422;SDS011;8829;47.932;7.810;2022-09-24T10:52:24;1.20;;;1.10;;
17422;SDS011;8829;47.932;7.810;2022-09-24T10:55:01;1.00;;;1.00;;
17422;SDS011;8829;47.932;7.810;2022-09-24T10:57:40;1.10;;;1.10;;
17422;SDS011;8829;47.932;7.810;2022-09-24T11:00:14;0.90;;;0.90;;
17422;SDS011;8829;47.932;7.810;2022-09-24T11:05:49;0.97;;;0.97;;
17422;SDS011;8829;47.932;7.810;2022-09-24T11:08:22;1.00;;;1.00;;
17422;SDS011;8829;47.932;7.810;2022-09-24T11:11:05;1.33;;;1.23;;
17422;SDS011;8829;47.932;7.810;2022-09-24T11:13:44;1.00;;;1.00;;
17422;SDS011;8829;47.932;7.810;2022-09-24T11:16:24;1.03;;;0.93;;
17422;SDS011;8829;47.932;7.810;2022-09-24T11:19:04;1.17;;;1.07;;
17422;SDS011;8829;47.932;7.810;2022-09-24T11:21:42;1.10;;;1.00;;
17422;SDS011;8829;47.932;7.810;2022-09-24T11:24:30;1.73;;;1.63;;
17422;SDS011;8829;47.932;7.810;2022-09-24T11:27:11;0.93;;;0.93;;
17422;SDS011;8829;47.932;7.810;2022-09-24T11:29:57;1.37;;;1.27;;
17422;SDS011;8829;47.932;7.810;2022-09-24T11:32:33;1.00;;;1.00;;
17422;SDS011;8829;47.932;7.810;2022-09-24T11:35:17;0.93;;;0.93;;
17422;SDS011;8829;47.932;7.810;2022-09-24T11:37:57;2.67;;;1.37;;
17422;SDS011;8829;47.932;7.810;2022-09-24T11:43:28;1.00;;;1.00;;
17422;SDS011;8829;47.932;7.810;2022-09-24T11:46:11;1.00;;;1.00;;
17422;SDS011;8829;47.932;7.810;2022-09-24T11:48:56;1.13;;;1.03;;
17422;SDS011;8829;47.932;7.810;2022-09-24T11:51:54;1.00;;;1.00;;
17422;SDS011;8829;47.932;7.810;2022-09-24T11:54:25;1.33;;;1.30;;
17422;SDS011;8829;47.932;7.810;2022-09-24T11:57:01;1.87;;;1.50;;
17422;SDS011;8829;47.932;7.810;2022-09-24T11:59:35;1.30;;;1.20;;
17422;SDS011;8829;47.932;7.810;2022-09-24T12:02:10;1.70;;;1.60;;
17422;SDS011;8829;47.932;7.810;2022-09-24T12:04:45;1.37;;;1.37;;
17422;SDS011;8829;47.932;7.810;2022-09-24T12:07:21;1.60;;;1.30;;
17422;SDS011;8829;47.932;7.810;2022-09-24T12:09:54;1.67;;;1.30;;
17422;SDS011;8829;47.932;7.810;2022-09-24T12:12:26;2.13;;;1.10;;
17422;SDS011;8829;47.932;7.810;2022-09-24T12:14:58;1.57;;;1.47;;
17422;SDS011;8829;47.932;7.810;2022-09-24T12:17:31;2.00;;;1.10;;
17422;SDS011;8829;47.932;7.810;2022-09-24T12:20:03;1.20;;;1.20;;
17422;SDS011;8829;47.932;7.810;2022-09-24T12:22:34;1.50;;;1.40;;
17422;SDS011;8829;47.932;7.810;2022-09-24T12:25:04;1.17;;;1.10;;
17422;SDS011;8829;47.932;7.810;2022-09-24T12:27:38;1.23;;;1.10;;
17422;SDS011;8829;47.932;7.810;2022-09-24T12:30:11;1.30;;;1.27;;
17422;SDS011;8829;47.932;7.810;2022-09-24T12:33:12;1.00;;;1.00;;
17422;SDS011;8829;47.932;7.810;2022-09-24T12:35:46;1.30;;;1.20;;
17422;SDS011;8829;47.932;7.810;2022-09-24T12:38:27;1.47;;;1.37;;
17422;SDS011;8829;47.932;7.810;2022-09-24T12:43:54;1.17;;;1.17;;
17422;SDS011;8829;47.932;7.810;2022-09-24T12:46:27;2.17;;;1.20;;
17422;SDS011;8829;47.932;7.810;2022-09-24T12:48:58;1.40;;;1.30;;
17422;SDS011;8829;47.932;7.810;2022-09-24T12:51:32;1.30;;;1.20;;
17422;SDS011;8829;47.932;7.810;2022-09-24T12:54:04;1.53;;;1.17;;
17422;SDS011;8829;47.932;7.810;2022-09-24T12:56:33;1.47;;;1.37;;
17422;SDS011;8829;47.932;7.810;2022-09-24T12:59:01;1.40;;;1.30;;
17422;SDS011;8829;47.932;7.810;2022-09-24T13:01:29;1.50;;;1.17;;
17422;SDS011;8829;47.932;7.810;2022-09-24T13:06:53;1.30;;;1.20;;
17422;SDS011;8829;47.932;7.810;2022-09-24T13:09:31;1.50;;;1.30;;
17422;SDS011;8829;47.932;7.810;2022-09-24T13:12:04;1.97;;;1.70;;
17422;SDS011;8829;47.932;7.810;2022-09-24T13:14:47;1.30;;;1.30;;
17422;SDS011;8829;47.932;7.810;2022-09-24T13:17:19;1.30;;;1.30;;
17422;SDS011;8829;47.932;7.810;2022-09-24T13:19:46;1.10;;;1.10;;
17422;SDS011;8829;47.932;7.810;2022-09-24T13:22:21;1.67;;;1.53;;
17422;SDS011;8829;47.932;7.810;2022-09-24T13:24:52;1.50;;;1.40;;
17422;SDS011;8829;47.932;7.810;2022-09-24T13:27:42;2.03;;;1.83;;
17422;SDS011;8829;47.932;7.810;2022-09-24T13:30:21;1.67;;;1.57;;
17422;SDS011;8829;47.932;7.810;2022-09-24T13:32:58;1.47;;;1.40;;
17422;SDS011;8829;47.932;7.810;2022-09-24T13:35:29;1.40;;;1.30;;
17422;SDS011;8829;47.932;7.810;2022-09-24T13:38:02;1.60;;;1.50;;
17422;SDS011;8829;47.932;7.810;2022-09-24T13:40:34;2.20;;;2.00;;
17422;SDS011;8829;47.932;7.810;2022-09-24T13:43:06;1.60;;;1.50;;
17422;SDS011;8829;47.932;7.810;2022-09-24T13:45:40;5.00;;;1.60;;
17422;SDS011;8829;47.932;7.810;2022-09-24T13:48:12;1.73;;;1.63;;
17422;SDS011;8829;47.932;7.810;2022-09-24T13:50:44;2.13;;;1.30;;
17422;SDS011;8829;47.932;7.810;2022-09-24T13:53:16;1.67;;;1.57;;
17422;SDS011;8829;47.932;7.810;2022-09-24T13:55:47;1.57;;;1.47;;
17422;SDS011;8829;47.932;7.810;2022-09-24T13:58:26;5.70;;;4.63;;
17422;SDS011;8829;47.932;7.810;2022-09-24T14:00:55;2.33;;;1.90;;
17422;SDS011;8829;47.932;7.810;2022-09-24T14:03:26;3.00;;;2.53;;
17422;SDS011;8829;47.932;7.810;2022-09-24T14:05:56;1.90;;;1.80;;
17422;SDS011;8829;47.932;7.810;2022-09-24T14:08:24;5.20;;;3.23;;
17422;SDS011;8829;47.932;7.810;2022-09-24T14:11:02;2.03;;;1.93;;
17422;SDS011;8829;47.932;7.810;2022-09-24T14:13:32;4.30;;;3.03;;
17422;SDS011;8829;47.932;7.810;2022-09-24T14:16:07;3.73;;;2.63;;
17422;SDS011;8829;47.932;7.810;2022-09-24T14:18:35;4.57;;;3.13;;
17422;SDS011;8829;47.932;7.810;2022-09-24T14:21:03;10.53;;;6.20;;
17422;SDS011;8829;47.932;7.810;2022-09-24T14:23:35;1.70;;;1.60;;
17422;SDS011;8829;47.932;7.810;2022-09-24T14:26:05;3.20;;;2.47;;
17422;SDS011;8829;47.932;7.810;2022-09-24T14:28:34;3.77;;;2.97;;
17422;SDS011;8829;47.932;7.810;2022-09-24T14:31:00;2.53;;;2.33;;
17422;SDS011;8829;47.932;7.810;2022-09-24T14:33:29;2.07;;;1.87;;
17422;SDS011;8829;47.932;7.810;2022-09-24T14:35:58;3.73;;;2.80;;
17422;SDS011;8829;47.932;7.810;2022-09-24T14:38:29;2.40;;;1.90;;
17422;SDS011;8829;47.932;7.810;2022-09-24T14:41:00;3.63;;;2.70;;
17422;SDS011;8829;47.932;7.810;2022-09-24T14:43:30;2.17;;;2.07;;
17422;SDS011;8829;47.932;7.810;2022-09-24T14:46:02;1.30;;;1.20;;
17422;SDS011;8829;47.932;7.810;2022-09-24T14:48:34;1.60;;;1.50;;
17422;SDS011;8829;47.932;7.810;2022-09-24T14:51:01;1.67;;;1.40;;
17422;SDS011;8829;47.932;7.810;2022-09-24T14:53:29;2.10;;;1.83;;
17422;SDS011;8829;47.932;7.810;2022-09-24T14:55:58;1.57;;;1.47;;
17422;SDS011;8829;47.932;7.810;2022-09-24T14:58:33;2.67;;;2.17;;
17422;SDS011;8829;47.932;7.810;2022-09-24T15:01:02;3.37;;;2.37;;
17422;SDS011;8829;47.932;7.810;2022-09-24T15:03:36;3.47;;;1.83;;
17422;SDS011;8829;47.932;7.810;2022-09-24T15:06:05;1.57;;;1.47;;
17422;SDS011;8829;47.932;7.810;2022-09-24T15:08:40;1.73;;;1.60;;
17422;SDS011;8829;47.932;7.810;2022-09-24T15:11:13;2.70;;;1.67;;
17422;SDS011;8829;47.932;7.810;2022-09-24T15:13:41;5.90;;;1.90;;
17422;SDS011;8829;47.932;7.810;2022-09-24T15:16:16;1.50;;;1.40;;
17422;SDS011;8829;47.932;7.810;2022-09-24T15:18:47;1.67;;;1.57;;
17422;SDS011;8829;47.932;7.810;2022-09-24T15:21:20;1.57;;;1.37;;
17422;SDS011;8829;47.932;7.810;2022-09-24T15:23:47;2.83;;;1.30;;
17422;SDS011;8829;47.932;7.810;2022-09-24T15:26:13;1.60;;;1.50;;
17422;SDS011;8829;47.932;7.810;2022-09-24T15:28:40;1.47;;;1.40;;
17422;SDS011;8829;47.932;7.810;2022-09-24T15:31:07;1.30;;;1.20;;
17422;SDS011;8829;47.932;7.810;2022-09-24T15:33:33;1.07;;;1.07;;
17422;SDS011;8829;47.932;7.810;2022-09-24T15:36:02;1.17;;;1.10;;